Time;durP1;ratioP1;P1;durP2;ratioP2;P2;SDS_P1;SDS_P2;PMS_P1;PMS_P2;Temp;Humidity;BMP_temperature;BMP_pressure;BME280_temperature;BME280_humidity;BME280_pressure;Samples;Min_cycle;Max_cycle;Signal;HPM_P1;HPM_P2
2023/12/08 00:01:47;;;;;;;25.80;18.47;;;;;;;-0.51;71.82;95765.69;5009293;28;20176;-68
2023/12/08 00:04:13;;;;;;;26.50;18.27;;;;;;;-0.28;70.85;95768.03;5009491;28;20306;-67
2023/12/08 00:06:39;;;;;;;34.77;20.33;;;;;;;0.26;69.07;95775.09;5009018;28;20704;-68
2023/12/08 00:09:04;;;;;;;23.13;16.60;;;;;;;0.28;68.44;95775.88;5009453;28;20541;-68
2023/12/08 00:11:30;;;;;;;29.40;19.07;;;;;;;0.67;67.12;95785.69;5009321;28;20533;-69
2023/12/08 00:13:55;;;;;;;24.80;17.43;;;;;;;0.75;67.24;95774.34;5009275;28;20199;-67
2023/12/08 00:16:22;;;;;;;24.10;18.17;;;;;;;0.62;68.14;95771.09;5010966;28;20203;-67
2023/12/08 00:18:47;;;;;;;28.37;18.33;;;;;;;0.62;67.38;95767.69;5011693;28;20195;-66
2023/12/08 00:21:13;;;;;;;25.67;18.40;;;;;;;0.41;67.22;95756.78;5011216;28;20404;-66
2023/12/08 00:23:38;;;;;;;27.83;20.03;;;;;;;0.16;68.42;95751.09;5007995;28;20427;-66
2023/12/08 00:26:04;;;;;;;31.60;19.50;;;;;;;0.13;70.24;95748.56;5007882;28;20279;-69
2023/12/08 00:28:29;;;;;;;26.23;18.60;;;;;;;0.66;68.07;95747.81;5009504;28;20175;-68
2023/12/08 00:30:55;;;;;;;29.17;20.58;;;;;;;0.90;67.11;95742.25;5008713;28;20538;-67
2023/12/08 00:33:20;;;;;;;26.63;21.00;;;;;;;1.01;66.65;95734.31;5000702;28;20545;-67
2023/12/08 00:35:48;;;;;;;26.90;20.87;;;;;;;1.04;65.72;95732.53;4993598;28;20196;-66
2023/12/08 00:38:13;;;;;;;26.97;18.67;;;;;;;0.46;67.34;95735.22;4996100;28;20176;-69
2023/12/08 00:40:38;;;;;;;33.50;19.97;;;;;;;0.74;66.95;95727.91;4995825;28;20401;-69
2023/12/08 00:43:04;;;;;;;29.80;19.03;;;;;;;0.96;66.80;95728.38;4996562;28;20180;-68
2023/12/08 00:45:29;;;;;;;27.47;17.80;;;;;;;0.92;66.74;95727.59;4994319;28;20176;-68
2023/12/08 00:47:55;;;;;;;29.13;19.73;;;;;;;0.38;68.02;95725.88;4990196;28;20169;-68
2023/12/08 00:50:20;;;;;;;28.42;22.08;;;;;;;0.08;68.87;95719.41;4987813;28;20432;-69
2023/12/08 00:52:45;;;;;;;27.30;20.13;;;;;;;0.28;69.06;95706.22;4989188;28;20672;-68
2023/12/08 00:55:11;;;;;;;26.37;19.10;;;;;;;0.02;70.07;95719.47;4989086;28;20169;-67
2023/12/08 00:57:36;;;;;;;30.50;20.60;;;;;;;0.16;69.46;95727.88;4988959;28;20176;-70
2023/12/08 01:00:01;;;;;;;29.07;20.20;;;;;;;0.25;69.07;95724.34;4989681;28;20678;-68
2023/12/08 01:02:27;;;;;;;27.37;20.70;;;;;;;0.60;68.44;95733.28;4989283;28;20172;-68
2023/12/08 01:04:52;;;;;;;27.90;19.73;;;;;;;0.71;67.43;95722.75;4989972;28;20207;-68
2023/12/08 01:07:18;;;;;;;28.63;20.10;;;;;;;0.17;68.72;95729.59;4989743;28;20308;-68
2023/12/08 01:09:43;;;;;;;30.00;21.90;;;;;;;0.47;68.93;95724.00;4988722;28;21072;-68
2023/12/08 01:12:08;;;;;;;30.20;20.30;;;;;;;0.48;67.79;95715.41;4989419;28;20200;-67
2023/12/08 01:14:34;;;;;;;30.20;20.27;;;;;;;0.24;69.45;95694.25;4989477;28;20302;-67
2023/12/08 01:16:59;;;;;;;27.27;19.57;;;;;;;-0.63;72.56;95698.00;4987294;28;20200;-68
2023/12/08 01:19:25;;;;;;;32.33;23.00;;;;;;;-0.01;71.03;95712.66;4988317;28;20417;-68
2023/12/08 01:21:50;;;;;;;32.27;22.23;;;;;;;0.46;68.94;95702.50;4989118;28;20275;-67
2023/12/08 01:24:16;;;;;;;28.37;20.00;;;;;;;0.22;69.40;95701.16;4988941;28;20644;-66
2023/12/08 01:26:45;;;;;;;32.00;21.20;;;;;;;0.40;69.43;95712.91;4988501;28;20193;-68
2023/12/08 01:29:13;;;;;;;34.10;19.83;;;;;;;0.69;67.74;95724.53;4989101;28;20169;-66
2023/12/08 01:31:39;;;;;;;32.97;20.83;;;;;;;0.68;67.95;95718.50;4989155;28;20440;-67
2023/12/08 01:34:04;;;;;;;29.27;20.70;;;;;;;0.87;67.49;95716.47;5001787;28;20415;-69
2023/12/08 01:36:29;;;;;;;36.17;21.07;;;;;;;0.72;67.38;95703.81;5008024;28;20184;-67
2023/12/08 01:38:55;;;;;;;28.40;19.33;;;;;;;0.85;66.95;95705.31;5008580;28;20175;-66
2023/12/08 01:41:21;;;;;;;33.40;19.80;;;;;;;1.06;66.27;95696.31;5009081;28;20902;-67
2023/12/08 01:43:46;;;;;;;30.10;21.43;;;;;;;1.11;66.24;95707.47;5007631;28;20500;-67
2023/12/08 01:46:17;;;;;;;30.80;21.50;;;;;;;0.94;66.25;95692.22;5008183;28;20458;-67
2023/12/08 01:48:43;;;;;;;28.70;21.50;;;;;;;0.81;66.80;95685.59;5008841;28;20184;-66
2023/12/08 01:51:11;;;;;;;30.40;21.40;;;;;;;0.67;68.07;95675.50;5008179;28;20455;-66
2023/12/08 01:53:38;;;;;;;30.37;20.93;;;;;;;0.89;67.46;95691.47;5008005;28;20415;-68
2023/12/08 01:56:04;;;;;;;26.80;18.70;;;;;;;0.90;67.33;95680.28;5007965;28;20485;-68
2023/12/08 01:58:30;;;;;;;29.00;19.87;;;;;;;0.26;68.26;95669.28;5008361;28;20415;-68
2023/12/08 02:00:55;;;;;;;29.50;19.43;;;;;;;0.47;68.91;95678.38;5008509;28;20407;-67
2023/12/08 02:03:22;;;;;;;29.77;19.87;;;;;;;0.55;69.46;95679.13;5013227;28;20228;-69
2023/12/08 02:05:48;;;;;;;31.07;21.13;;;;;;;0.43;68.67;95658.69;5014419;28;20282;-68
2023/12/08 02:08:14;;;;;;;31.93;21.87;;;;;;;0.37;69.34;95676.84;5017668;28;20411;-68
2023/12/08 02:10:39;;;;;;;27.83;20.40;;;;;;;0.15;69.83;95664.28;5017562;28;20386;-68
2023/12/08 02:13:05;;;;;;;36.43;21.77;;;;;;;-0.17;71.88;95663.88;5017524;28;20415;-67
2023/12/08 02:15:30;;;;;;;31.43;21.60;;;;;;;-0.57;72.96;95664.41;5016071;28;20172;-67
2023/12/08 02:17:57;;;;;;;35.10;21.30;;;;;;;0.22;71.13;95646.13;5016692;28;20222;-67
2023/12/08 02:20:22;;;;;;;36.25;22.80;;;;;;;-0.23;72.16;95647.63;5018251;28;20927;-66
2023/12/08 02:22:48;;;;;;;29.67;21.53;;;;;;;-0.48;72.40;95638.53;5013770;28;20176;-68
2023/12/08 02:25:13;;;;;;;35.63;23.60;;;;;;;-0.77;73.86;95632.00;5012825;28;20183;-65
2023/12/08 02:27:39;;;;;;;36.60;23.90;;;;;;;-1.08;75.47;95629.78;5011277;28;20411;-66
2023/12/08 02:30:05;;;;;;;33.63;24.77;;;;;;;-0.91;75.54;95646.78;5011440;28;20939;-67
2023/12/08 02:32:51;;;;;;;39.70;25.58;;;;;;;0.02;72.19;95664.47;5009917;28;20414;-68
2023/12/08 02:35:19;;;;;;;32.03;23.20;;;;;;;0.06;71.00;95623.13;4991575;28;20181;-66
2023/12/08 02:37:47;;;;;;;34.60;22.23;;;;;;;-0.17;71.39;95635.53;4991275;28;20443;-66
2023/12/08 02:40:13;;;;;;;28.60;20.23;;;;;;;-0.56;72.63;95648.09;4991730;28;20483;-67
2023/12/08 02:42:39;;;;;;;36.93;21.90;;;;;;;-0.19;72.01;95652.72;4990712;28;20854;-66
2023/12/08 02:45:05;;;;;;;30.17;20.63;;;;;;;0.31;70.55;95653.72;4991431;28;20251;-66
2023/12/08 02:47:30;;;;;;;31.52;22.48;;;;;;;0.42;69.01;95620.84;4990791;28;20756;-66
2023/12/08 02:49:56;;;;;;;33.10;21.00;;;;;;;0.14;70.98;95641.06;4992116;28;20169;-67
2023/12/08 02:52:21;;;;;;;30.37;20.00;;;;;;;0.42;69.63;95649.22;4991722;28;20180;-66
2023/12/08 02:54:46;;;;;;;33.40;24.00;;;;;;;0.58;68.39;95648.09;4990235;28;20424;-65
2023/12/08 02:57:12;;;;;;;34.33;21.70;;;;;;;0.84;68.02;95654.53;4995564;28;21019;-69
2023/12/08 02:59:37;;;;;;;28.97;20.30;;;;;;;0.92;67.11;95670.75;5006734;28;20215;-67
2023/12/08 03:02:03;;;;;;;24.90;18.33;;;;;;;0.93;67.52;95682.78;5006526;28;20180;-67
2023/12/08 03:04:28;;;;;;;33.60;19.80;;;;;;;1.12;67.13;95643.69;5009405;28;20176;-66
2023/12/08 03:06:53;;;;;;;31.57;20.43;;;;;;;1.07;66.33;95653.28;5010784;28;20196;-66
2023/12/08 03:09:19;;;;;;;29.77;19.67;;;;;;;1.01;66.81;95643.88;4995869;28;20247;-68
2023/12/08 03:11:44;;;;;;;34.70;20.70;;;;;;;0.91;66.97;95634.63;5010711;28;20313;-67
2023/12/08 03:14:09;;;;;;;30.60;21.23;;;;;;;0.92;67.31;95625.97;5007794;28;20652;-67
2023/12/08 03:16:35;;;;;;;27.87;18.77;;;;;;;0.08;68.96;95639.44;4994550;28;20687;-66
2023/12/08 03:19:00;;;;;;;32.10;19.77;;;;;;;0.52;68.14;95618.94;4990332;28;20201;-66
2023/12/08 03:21:27;;;;;;;31.87;21.53;;;;;;;0.26;69.33;95624.53;4990234;28;20215;-68
2023/12/08 03:23:52;;;;;;;29.33;20.50;;;;;;;-0.31;71.94;95630.56;4990270;28;20544;-67
2023/12/08 03:26:18;;;;;;;27.97;20.93;;;;;;;-0.24;71.54;95620.16;4989892;28;20432;-66
2023/12/08 03:28:44;;;;;;;34.17;21.00;;;;;;;0.20;71.30;95618.59;5002114;28;20187;-69
2023/12/08 03:31:31;;;;;;;30.87;20.77;;;;;;;0.39;69.58;95618.31;5009980;28;20822;-67
2023/12/08 03:33:56;;;;;;;28.20;19.00;;;;;;;0.12;70.22;95633.38;5009704;28;20184;-67
2023/12/08 03:36:22;;;;;;;26.33;18.70;;;;;;;-0.37;71.27;95631.50;5009211;28;20494;-68
2023/12/08 03:38:47;;;;;;;30.73;18.97;;;;;;;0.10;70.12;95624.81;5009764;28;20175;-67
2023/12/08 03:41:13;;;;;;;33.73;19.80;;;;;;;-0.16;70.94;95630.34;4993346;28;20228;-67
2023/12/08 03:43:38;;;;;;;36.87;21.40;;;;;;;-0.08;70.42;95619.91;5002030;28;20164;-68
2023/12/08 03:46:08;;;;;;;33.97;23.85;;;;;;;0.04;71.09;95609.41;5009230;28;20786;-67
2023/12/08 03:48:35;;;;;;;34.93;23.17;;;;;;;0.21;70.75;95611.72;5009588;28;20187;-66
2023/12/08 03:51:01;;;;;;;38.33;21.93;;;;;;;0.52;69.32;95612.06;5009526;28;21047;-68
2023/12/08 03:53:26;;;;;;;27.50;18.30;;;;;;;0.38;68.85;95617.47;4993177;28;20420;-68
2023/12/08 03:55:51;;;;;;;32.33;21.67;;;;;;;-0.13;71.18;95632.03;5009252;28;20282;-68
2023/12/08 03:58:17;;;;;;;29.70;20.80;;;;;;;0.06;71.02;95628.28;5008255;28;20521;-67
2023/12/08 04:00:42;;;;;;;34.07;21.07;;;;;;;0.22;70.39;95628.06;5009607;28;20175;-67
2023/12/08 04:03:07;;;;;;;30.47;21.07;;;;;;;0.63;68.34;95635.09;5009509;28;20172;-68
2023/12/08 04:05:33;;;;;;;33.70;22.53;;;;;;;0.71;68.08;95632.38;4996666;28;20169;-68
2023/12/08 04:07:58;;;;;;;33.50;20.40;;;;;;;0.76;67.51;95631.44;4991102;28;20177;-67
2023/12/08 04:10:24;;;;;;;32.43;20.80;;;;;;;0.80;68.05;95630.50;4991590;28;20220;-67
2023/12/08 04:12:49;;;;;;;27.73;19.93;;;;;;;0.87;67.25;95632.97;4991337;28;20177;-66
2023/12/08 04:15:14;;;;;;;32.80;20.20;;;;;;;0.37;69.40;95630.38;5007626;28;20180;-68
2023/12/08 04:17:40;;;;;;;30.83;21.60;;;;;;;0.22;69.60;95633.22;5010833;28;20196;-68
2023/12/08 04:20:05;;;;;;;31.13;20.83;;;;;;;0.38;69.88;95640.69;5009826;28;20208;-68
2023/12/08 04:22:31;;;;;;;31.03;21.40;;;;;;;0.47;69.40;95634.50;5004285;28;20176;-69
2023/12/08 04:24:57;;;;;;;31.03;21.07;;;;;;;0.42;69.22;95632.00;5008868;28;20180;-66
2023/12/08 04:27:22;;;;;;;31.17;21.30;;;;;;;0.45;69.35;95636.28;5008856;28;20210;-66
2023/12/08 04:29:48;;;;;;;32.97;21.00;;;;;;;0.85;67.95;95630.41;5004848;28;20628;-66
2023/12/08 04:32:13;;;;;;;34.93;22.00;;;;;;;0.92;66.96;95642.34;4997871;28;20199;-67
2023/12/08 04:34:38;;;;;;;31.10;22.27;;;;;;;0.94;66.65;95639.72;4995972;28;20210;-65
2023/12/08 04:37:04;;;;;;;32.60;24.80;;;;;;;0.54;68.48;95636.09;4989420;28;20424;-66
2023/12/08 04:39:30;;;;;;;29.10;22.40;;;;;;;0.79;67.81;95627.94;4995368;28;20200;-66
2023/12/08 04:41:55;;;;;;;37.47;23.37;;;;;;;0.45;69.54;95635.41;5006977;28;20274;-65
2023/12/08 04:44:20;;;;;;;33.20;21.67;;;;;;;0.41;70.33;95648.38;4999974;28;20572;-66
2023/12/08 04:46:46;;;;;;;30.90;23.03;;;;;;;-0.02;71.16;95666.25;5010576;28;20204;-67
2023/12/08 04:49:11;;;;;;;35.83;24.17;;;;;;;0.58;68.79;95676.50;5012359;28;20195;-68
2023/12/08 04:51:41;;;;;;;32.17;22.13;;;;;;;0.99;67.33;95689.56;5012600;28;20254;-66
2023/12/08 04:54:06;;;;;;;35.37;23.00;;;;;;;1.10;67.21;95691.97;5006391;28;20188;-68
2023/12/08 04:56:31;;;;;;;40.97;24.40;;;;;;;1.06;67.00;95683.41;5002766;28;20446;-68
2023/12/08 04:58:57;;;;;;;34.90;24.57;;;;;;;0.94;67.55;95684.47;4993104;28;20185;-68
2023/12/08 05:01:22;;;;;;;36.20;21.73;;;;;;;0.73;68.77;95669.38;5005729;28;20607;-67
2023/12/08 05:03:48;;;;;;;30.60;21.30;;;;;;;0.66;69.12;95660.03;5012559;28;20177;-67
2023/12/08 05:06:13;;;;;;;37.53;24.70;;;;;;;0.77;68.69;95658.94;5011374;28;20467;-68
2023/12/08 05:08:38;;;;;;;37.93;25.50;;;;;;;0.91;68.25;95661.28;5010956;28;20429;-69
2023/12/08 05:11:04;;;;;;;40.60;25.77;;;;;;;1.09;67.32;95672.16;5009605;28;20258;-68
2023/12/08 05:13:29;;;;;;;37.10;25.10;;;;;;;1.13;67.21;95672.06;5010416;28;20256;-68
2023/12/08 05:15:55;;;;;;;34.83;23.80;;;;;;;0.65;68.86;95664.34;5012345;28;20211;-69
2023/12/08 05:18:20;;;;;;;31.57;22.70;;;;;;;0.68;69.00;95672.03;5012120;28;20259;-68
2023/12/08 05:20:45;;;;;;;36.07;21.97;;;;;;;0.82;68.60;95667.47;5004458;28;20177;-68
2023/12/08 05:23:11;;;;;;;38.73;22.87;;;;;;;0.79;68.15;95666.69;5011720;28;20176;-69
2023/12/08 05:25:37;;;;;;;35.13;22.73;;;;;;;0.71;69.19;95653.91;5007554;28;20761;-67
2023/12/08 05:28:02;;;;;;;36.20;24.87;;;;;;;0.77;68.86;95663.28;5003690;28;20436;-67
2023/12/08 05:30:27;;;;;;;36.73;27.40;;;;;;;0.61;69.95;95660.09;5003966;28;20446;-67
2023/12/08 05:32:54;;;;;;;35.80;25.90;;;;;;;0.54;69.67;95659.34;5011773;28;20282;-68
2023/12/08 05:35:19;;;;;;;31.13;22.40;;;;;;;0.35;70.72;95663.09;5011541;28;20647;-68
2023/12/08 05:37:45;;;;;;;35.80;24.90;;;;;;;0.33;70.83;95668.31;5014572;28;20415;-67
2023/12/08 05:40:11;;;;;;;35.47;23.43;;;;;;;0.61;70.62;95688.50;5009062;28;20239;-69
2023/12/08 05:42:36;;;;;;;33.28;24.00;;;;;;;0.70;69.26;95672.00;5002881;28;20757;-68
2023/12/08 05:45:02;;;;;;;35.00;24.03;;;;;;;0.86;69.20;95681.19;5009266;28;20079;-68
2023/12/08 05:47:27;;;;;;;36.10;23.87;;;;;;;0.48;70.65;95667.19;5019462;28;20430;-69
2023/12/08 05:49:52;;;;;;;31.27;22.63;;;;;;;0.42;70.37;95677.63;5015034;28;20748;-68
2023/12/08 05:52:18;;;;;;;30.10;21.40;;;;;;;0.40;70.67;95702.59;5017680;28;20322;-69
2023/12/08 05:54:43;;;;;;;30.03;20.70;;;;;;;0.68;70.12;95699.59;5017316;28;20188;-69
2023/12/08 05:57:09;;;;;;;36.00;23.60;;;;;;;0.81;68.64;95685.59;5018861;28;20194;-69
2023/12/08 05:59:34;;;;;;;35.30;22.90;;;;;;;0.89;68.46;95683.72;5016938;28;20851;-68
2023/12/08 06:02:00;;;;;;;30.17;20.40;;;;;;;0.75;68.48;95680.53;5014782;28;20243;-68
2023/12/08 06:04:25;;;;;;;32.07;23.07;;;;;;;0.83;68.35;95689.00;5013034;28;20183;-68
2023/12/08 06:06:51;;;;;;;31.73;22.60;;;;;;;0.96;67.65;95692.22;5007747;28;20442;-68
2023/12/08 06:09:16;;;;;;;29.97;21.30;;;;;;;0.92;68.10;95698.31;5015002;28;20190;-68
2023/12/08 06:11:42;;;;;;;27.60;19.70;;;;;;;1.00;67.73;95697.31;5012935;28;20258;-70
2023/12/08 06:14:07;;;;;;;31.53;20.50;;;;;;;1.15;67.04;95710.81;5005599;28;20180;-68
2023/12/08 06:16:32;;;;;;;29.90;20.70;;;;;;;1.04;67.28;95698.97;5008237;28;20200;-69
2023/12/08 06:18:58;;;;;;;27.60;20.77;;;;;;;1.13;66.79;95691.91;5011693;28;20247;-68
2023/12/08 06:21:23;;;;;;;29.93;22.93;;;;;;;1.31;66.47;95706.22;5010389;28;20822;-67
2023/12/08 06:23:48;;;;;;;30.33;19.70;;;;;;;1.37;66.74;95696.63;5011279;28;20191;-66
2023/12/08 06:26:14;;;;;;;28.57;20.20;;;;;;;1.27;66.68;95715.75;5012346;28;20232;-66
2023/12/08 06:28:40;;;;;;;25.90;20.07;;;;;;;1.24;66.96;95716.66;5004992;28;20188;-67
2023/12/08 06:31:08;;;;;;;31.27;21.80;;;;;;;1.46;66.30;95700.75;5014771;28;20214;-70
2023/12/08 06:33:33;;;;;;;32.57;21.27;;;;;;;1.46;66.59;95693.88;5013019;28;20427;-67
2023/12/08 06:35:59;;;;;;;25.30;18.40;;;;;;;1.55;66.01;95691.97;5010745;28;20547;-69
2023/12/08 06:38:24;;;;;;;31.50;22.67;;;;;;;1.59;66.22;95685.84;5009917;28;20776;-68
2023/12/08 06:40:49;;;;;;;37.00;23.63;;;;;;;1.54;66.11;95683.38;5009637;28;20510;-66
2023/12/08 06:43:15;;;;;;;34.90;20.67;;;;;;;1.55;65.83;95674.72;5006893;28;20184;-67
2023/12/08 06:45:40;;;;;;;29.73;20.60;;;;;;;1.68;65.09;95677.91;5007780;28;20826;-67
2023/12/08 06:48:06;;;;;;;27.67;20.70;;;;;;;1.62;65.52;95678.03;5011312;28;20407;-67
2023/12/08 06:50:32;;;;;;;36.30;19.43;;;;;;;1.60;66.25;95682.38;5010797;28;20259;-65
2023/12/08 06:52:57;;;;;;;26.07;18.50;;;;;;;1.60;65.54;95679.78;5008999;28;20530;-66
2023/12/08 06:55:23;;;;;;;26.80;18.80;;;;;;;1.51;65.20;95682.56;5006629;28;20622;-68
2023/12/08 06:57:48;;;;;;;25.90;17.40;;;;;;;1.62;65.56;95686.63;4999419;28;20676;-65
2023/12/08 07:00:14;;;;;;;23.47;18.30;;;;;;;1.59;65.54;95672.94;4997758;28;20435;-66
2023/12/08 07:02:39;;;;;;;22.83;17.60;;;;;;;1.60;65.48;95697.88;5004178;28;20675;-66
2023/12/08 07:05:05;;;;;;;28.10;19.00;;;;;;;1.64;65.14;95682.28;5007418;28;20467;-65
2023/12/08 07:07:31;;;;;;;24.70;17.33;;;;;;;1.76;64.91;95680.34;5003441;28;20192;-66
2023/12/08 07:09:56;;;;;;;23.00;18.73;;;;;;;1.52;65.58;95672.19;5002761;28;20211;-68
2023/12/08 07:12:21;;;;;;;25.20;17.50;;;;;;;1.63;65.49;95669.38;5011173;28;20598;-67
2023/12/08 07:14:50;;;;;;;24.00;17.07;;;;;;;1.60;65.44;95661.69;5011027;28;20238;-67
2023/12/08 07:17:15;;;;;;;21.53;15.77;;;;;;;1.62;65.08;95667.69;5010126;28;20220;-68
2023/12/08 07:19:41;;;;;;;20.40;18.20;;;;;;;1.71;65.19;95670.09;5008141;28;20419;-66
2023/12/08 07:22:06;;;;;;;25.07;18.13;;;;;;;1.76;65.01;95667.41;5009905;28;20208;-66
2023/12/08 07:24:32;;;;;;;22.20;17.33;;;;;;;1.81;64.79;95661.22;5002798;28;20185;-66
2023/12/08 07:26:58;;;;;;;21.17;17.53;;;;;;;1.90;64.78;95663.63;5002500;28;20204;-67
2023/12/08 07:29:23;;;;;;;26.30;17.00;;;;;;;2.01;64.66;95662.53;4990723;28;20914;-67
2023/12/08 07:31:49;;;;;;;23.95;19.45;;;;;;;1.91;64.89;95667.06;5004431;28;20464;-66
2023/12/08 07:34:14;;;;;;;25.50;18.63;;;;;;;1.84;65.33;95670.66;5009034;28;20246;-66
2023/12/08 07:36:40;;;;;;;37.37;18.43;;;;;;;1.86;65.02;95672.31;5000414;28;20208;-68
2023/12/08 07:39:07;;;;;;;24.63;16.93;;;;;;;1.99;64.96;95675.50;5002796;28;20184;-66
2023/12/08 07:41:32;;;;;;;26.70;17.90;;;;;;;1.97;64.66;95663.50;5006584;28;20177;-66
2023/12/08 07:43:57;;;;;;;27.17;17.33;;;;;;;2.06;64.61;95668.47;5001511;28;20834;-65
2023/12/08 07:46:27;;;;;;;29.87;17.33;;;;;;;2.07;64.83;95672.75;5006159;28;20270;-65
2023/12/08 07:48:52;;;;;;;19.83;16.67;;;;;;;2.14;64.84;95676.91;5001338;28;20191;-67
2023/12/08 07:51:18;;;;;;;32.80;16.90;;;;;;;2.16;64.62;95684.66;4998227;28;20876;-67
2023/12/08 07:53:43;;;;;;;35.73;16.80;;;;;;;2.15;64.91;95690.69;4994990;28;20181;-66
2023/12/08 07:56:09;;;;;;;30.13;17.90;;;;;;;2.23;64.31;95683.63;4996171;28;20289;-66
2023/12/08 07:58:34;;;;;;;29.10;16.80;;;;;;;2.37;64.10;95685.91;4998255;28;20189;-66
2023/12/08 08:01:00;;;;;;;25.90;17.40;;;;;;;2.15;64.53;95673.44;4998854;28;20467;-66
2023/12/08 08:03:26;;;;;;;29.03;20.60;;;;;;;2.24;64.67;95675.78;4997777;28;20186;-67
2023/12/08 08:05:51;;;;;;;30.00;18.20;;;;;;;2.46;63.83;95683.09;4995785;28;20232;-67
2023/12/08 08:08:17;;;;;;;27.47;18.40;;;;;;;2.36;64.38;95676.41;5002640;28;20475;-66
2023/12/08 08:10:43;;;;;;;28.57;20.30;;;;;;;2.47;63.79;95677.84;5008506;28;20762;-67
2023/12/08 08:13:08;;;;;;;29.20;20.03;;;;;;;2.50;63.95;95676.94;5008576;28;20510;-66
2023/12/08 08:15:34;;;;;;;24.45;16.75;;;;;;;2.50;64.10;95684.69;5005588;28;20325;-66
2023/12/08 08:17:59;;;;;;;32.80;19.00;;;;;;;2.64;63.79;95689.56;5002467;28;20179;-66
2023/12/08 08:20:24;;;;;;;28.73;19.27;;;;;;;2.50;63.77;95684.69;5003200;28;20283;-66
2023/12/08 08:22:50;;;;;;;35.00;19.60;;;;;;;2.46;64.25;95689.13;4994200;28;20632;-67
2023/12/08 08:25:16;;;;;;;25.17;19.50;;;;;;;2.46;64.98;95673.56;4995495;28;20432;-66
2023/12/08 08:27:41;;;;;;;28.83;20.70;;;;;;;2.55;64.23;95667.31;4995461;28;20219;-70
2023/12/08 08:30:07;;;;;;;22.87;17.17;;;;;;;2.49;64.58;95680.41;4999907;28;20259;-67
2023/12/08 08:32:32;;;;;;;21.43;18.03;;;;;;;2.48;64.26;95682.16;4999353;28;20295;-66
2023/12/08 08:34:58;;;;;;;22.83;16.87;;;;;;;2.51;65.43;95670.88;4995739;28;20192;-68
2023/12/08 08:37:24;;;;;;;20.63;18.43;;;;;;;2.47;65.14;95689.97;4996745;28;20648;-66
2023/12/08 08:39:50;;;;;;;19.30;16.70;;;;;;;2.45;65.69;95679.63;4998813;28;20167;-67
2023/12/08 08:42:16;;;;;;;27.23;19.10;;;;;;;2.51;65.82;95678.66;4994050;28;20436;-67
2023/12/08 08:44:42;;;;;;;24.07;19.40;;;;;;;2.52;66.19;95675.16;5005682;28;20212;-66
2023/12/08 08:47:07;;;;;;;27.47;18.60;;;;;;;2.03;68.87;95674.56;4995342;28;20451;-67
2023/12/08 08:49:33;;;;;;;23.10;18.07;;;;;;;2.22;68.28;95687.06;4999933;28;20172;-65
2023/12/08 08:51:59;;;;;;;26.70;17.27;;;;;;;2.36;68.20;95677.25;4998228;28;20207;-66
2023/12/08 08:54:25;;;;;;;22.67;17.50;;;;;;;2.59;67.11;95674.13;4999834;28;20222;-67
2023/12/08 08:56:50;;;;;;;26.30;19.47;;;;;;;2.54;67.56;95669.06;4987732;28;20423;-67
2023/12/08 08:59:16;;;;;;;28.77;17.87;;;;;;;2.65;67.84;95662.78;4989742;28;20235;-68
2023/12/08 09:01:42;;;;;;;25.17;18.80;;;;;;;2.75;67.34;95672.84;4997825;28;20586;-66
2023/12/08 09:04:07;;;;;;;21.87;18.30;;;;;;;2.83;67.67;95666.63;5006370;28;20663;-66
2023/12/08 09:06:33;;;;;;;23.27;17.20;;;;;;;2.81;68.67;95669.28;5005686;28;20435;-69
2023/12/08 09:08:58;;;;;;;25.67;19.03;;;;;;;2.93;67.95;95681.06;5002843;28;20176;-66
2023/12/08 09:11:24;;;;;;;24.23;19.27;;;;;;;2.86;68.36;95682.09;5010164;28;20699;-66
2023/12/08 09:13:49;;;;;;;21.93;18.23;;;;;;;2.97;68.24;95686.13;5015465;28;20180;-66
2023/12/08 09:16:15;;;;;;;26.07;18.33;;;;;;;2.99;68.68;95685.25;5014685;28;20204;-67
2023/12/08 09:18:40;;;;;;;24.80;18.60;;;;;;;3.00;68.85;95690.41;5015945;28;20176;-67
2023/12/08 09:21:05;;;;;;;28.17;19.80;;;;;;;2.88;69.55;95695.88;5014908;28;20218;-68
2023/12/08 09:23:31;;;;;;;29.80;20.00;;;;;;;2.99;69.71;95704.22;5017360;28;20666;-67
2023/12/08 09:25:56;;;;;;;22.77;19.80;;;;;;;2.59;71.08;95701.78;5013015;28;20310;-67
2023/12/08 09:28:22;;;;;;;29.90;20.30;;;;;;;2.67;70.70;95700.72;4994502;28;20496;-68
2023/12/08 09:30:47;;;;;;;33.33;22.20;;;;;;;2.78;70.71;95707.34;4992129;28;20451;-67
2023/12/08 09:33:13;;;;;;;34.13;19.80;;;;;;;2.65;71.07;95702.47;4993396;28;20227;-67
2023/12/08 09:35:38;;;;;;;36.40;21.60;;;;;;;2.80;71.37;95692.63;4992088;28;20918;-67
2023/12/08 09:38:04;;;;;;;32.57;20.87;;;;;;;2.87;71.47;95697.59;4991208;28;20494;-66
2023/12/08 09:40:32;;;;;;;28.83;19.10;;;;;;;2.95;71.01;95700.88;4991056;28;20181;-69
2023/12/08 09:43:03;;;;;;;31.73;22.13;;;;;;;3.04;71.36;95698.94;5002012;28;20446;-66
2023/12/08 09:45:28;;;;;;;32.40;22.30;;;;;;;3.15;71.23;95699.50;4994518;28;20249;-67
2023/12/08 09:47:55;;;;;;;29.70;20.43;;;;;;;3.16;70.88;95688.22;5010425;28;20427;-65
2023/12/08 09:50:21;;;;;;;34.33;19.90;;;;;;;3.14;70.62;95696.06;5010568;28;20239;-68
2023/12/08 09:52:48;;;;;;;33.23;20.43;;;;;;;3.14;70.90;95695.19;5011190;28;20980;-67
2023/12/08 09:55:15;;;;;;;34.13;22.17;;;;;;;3.32;70.44;95693.88;5012377;28;20739;-68
2023/12/08 09:57:45;;;;;;;31.80;20.80;;;;;;;3.18;70.90;95691.63;5008605;28;20226;-67
2023/12/08 10:00:13;;;;;;;33.73;20.80;;;;;;;3.12;71.38;95690.06;5002213;28;20895;-68
2023/12/08 10:02:39;;;;;;;30.03;20.20;;;;;;;3.16;71.88;95683.88;5010721;28;20411;-67
2023/12/08 10:05:06;;;;;;;42.27;21.63;;;;;;;3.13;71.83;95680.53;4999639;28;20439;-67
2023/12/08 10:07:34;;;;;;;37.23;21.27;;;;;;;3.20;72.05;95679.50;4992087;28;20819;-68
2023/12/08 10:10:00;;;;;;;33.37;20.20;;;;;;;3.32;71.97;95684.34;5006567;28;20427;-67
2023/12/08 10:12:26;;;;;;;38.40;21.30;;;;;;;3.39;72.10;95685.03;5010046;28;21000;-69
2023/12/08 10:14:55;;;;;;;39.43;23.30;;;;;;;3.47;72.33;95672.69;4991951;28;21077;-69
2023/12/08 10:17:20;;;;;;;28.20;20.30;;;;;;;3.49;72.34;95680.44;5005777;28;20457;-67
2023/12/08 10:19:46;;;;;;;30.23;20.90;;;;;;;3.17;72.75;95677.84;5007050;28;20934;-67
2023/12/08 10:22:12;;;;;;;34.93;21.13;;;;;;;3.28;72.66;95677.53;4991960;28;20200;-66
2023/12/08 10:24:40;;;;;;;30.20;21.20;;;;;;;3.08;74.43;95672.03;4990116;28;20791;-67
2023/12/08 10:27:09;;;;;;;25.30;20.60;;;;;;;3.09;74.15;95677.16;4991951;28;20187;-68
2023/12/08 10:29:35;;;;;;;25.40;20.93;;;;;;;2.67;75.35;95679.09;5010659;28;20415;-68
2023/12/08 10:32:02;;;;;;;27.67;20.53;;;;;;;2.64;76.92;95677.44;5011398;28;20526;-68
2023/12/08 10:34:27;;;;;;;31.50;21.03;;;;;;;3.10;75.22;95665.94;5011333;28;20426;-68
2023/12/08 10:36:53;;;;;;;27.37;20.53;;;;;;;3.18;74.82;95663.13;5010290;28;20439;-68
2023/12/08 10:39:19;;;;;;;27.60;20.90;;;;;;;3.46;74.39;95659.78;5010771;28;20184;-67
2023/12/08 10:41:48;;;;;;;26.70;19.90;;;;;;;3.47;73.42;95658.88;5006552;28;20177;-68
2023/12/08 10:44:13;;;;;;;29.90;21.00;;;;;;;3.64;73.28;95653.19;4998091;28;20427;-69
2023/12/08 10:46:39;;;;;;;30.30;20.57;;;;;;;3.54;73.61;95653.50;5004541;28;20446;-69
2023/12/08 10:49:06;;;;;;;27.23;19.90;;;;;;;3.66;72.85;95651.41;4998006;28;20169;-69
2023/12/08 10:51:33;;;;;;;27.07;20.30;;;;;;;3.60;74.31;95658.50;4989936;28;20816;-67
2023/12/08 10:54:00;;;;;;;31.38;22.70;;;;;;;3.57;74.03;95650.81;4989141;28;20909;-68
2023/12/08 10:56:25;;;;;;;31.20;23.45;;;;;;;3.58;74.13;95659.44;4990668;28;20440;-70
2023/12/08 10:58:58;;;;;;;30.97;22.13;;;;;;;3.52;74.22;95655.28;4994593;28;20187;-69
2023/12/08 11:01:25;;;;;;;33.65;22.65;;;;;;;3.60;74.91;95655.06;4999592;28;20403;-68
2023/12/08 11:03:57;;;;;;;35.10;23.30;;;;;;;3.80;73.99;95650.16;4995238;28;20224;-68
2023/12/08 11:06:30;;;;;;;29.00;22.30;;;;;;;3.60;74.81;95640.34;4996759;28;20454;-68
2023/12/08 11:09:00;;;;;;;31.48;24.10;;;;;;;3.78;74.68;95641.56;4995124;28;20408;-68
2023/12/08 11:11:28;;;;;;;29.70;20.30;;;;;;;3.89;73.74;95638.63;4990259;28;20169;-70
2023/12/08 11:14:05;;;;;;;25.83;19.57;;;;;;;4.05;74.04;95643.38;5004669;28;20875;-70
2023/12/08 11:16:45;;;;;;;31.07;21.37;;;;;;;4.14;73.42;95638.72;4997326;28;20462;-69
2023/12/08 11:19:13;;;;;;;27.70;20.13;;;;;;;4.20;73.50;95637.69;5004555;28;20415;-70